Aeroporto :
LOGIN :

Iscrizione | Disclaimer

   EN    FR    IT 

 










Sommario :    VFR   VFR Marginale   IFR   IFR Intensivo   IFR Molto Intensivo
Visibilità : 
Base nubi : 
>= 8 km
>= 3000ft
5 / 8 km
1000 / 3000 ft
1500m / 5 km
500 / 1000 ft
800 / 1500m
200 / 500 ft
< 800m
< 200 ft
Simboli :   Temporali  Nebbia  Neve Forte  Precipitazioni Forti  Vento > 20 kt
SIGMETs :   Varie  Temporali  Ghiacco  Turbolenza  Onda orograficha  Ceneri Vulcaniche







- Altitudine del aeroporto : 284 ft


EGUW - RAF Wattisham

ULTIMO METAR :
  • 220850Z 09008KT 9999 BKN027 02/M03 Q1025 BLU NOSIG

METARs OBSOLETI :
  • 220750Z 09007KT 9999 BKN027 02/M02 Q1025 BLU NOSIG
  • 220650Z 09008KT 8000 HZ OVC025 02/M03 Q1024 BLU TEMPO 7000 HZ WHT
  • 220550Z AUTO 08007KT 9999 OVC027/// 02/M02 Q1024

TAF TAF EGUW
Valido dal 22 a 09 ore il 22 a 18 ore UTC


220737Z 2209/2218 08008KT 9999 BKN025
PROB30
TEMPO 2209/2212 SCT022
Nessun NOTAM noto per questo aeroporto.



MetMap, La meteo Aeronautica in un colpo d'occhio ! - Copyright ORBIFLY Dicembre 2007 - Disclaimer

ORBIFLY MET'MAP TEAM :

Programmazione e sviluppo : Alexandra Zaïnal
Concezione e sviluppo : Baudouin d'Aumeries
Co-Programmazione e sviluppo : Marc-Olivier Méhu
Supporto tecnico e logistico : Manuel Goepfert
Aiuto per la traduzione : Arnaldo La Scala

Contatto : metmap@orbifly.com




FONTI E CREDITI :

   NOAA